Time;durP1;ratioP1;P1;durP2;ratioP2;P2;SDS_P1;SDS_P2;PMS_P1;PMS_P2;Temp;Humidity;BMP_temperature;BMP_pressure;BME280_temperature;BME280_humidity;BME280_pressure;Samples;Min_cycle;Max_cycle;Signal;HPM_P1;HPM_P2
2022/09/03 00:00:51;;;;;;;7.10;1.23;;;16.20;99.90;;;;;;5011716;28;20414;-72
2022/09/03 00:03:26;;;;;;;1.90;1.10;;;16.20;99.90;;;;;;5012456;28;20510;-72
2022/09/03 00:06:10;;;;;;;1.90;1.33;;;16.20;99.90;;;;;;5023555;28;20861;-72
2022/09/03 00:08:43;;;;;;;2.07;1.10;;;16.30;99.90;;;;;;5031970;28;20468;-72
2022/09/03 00:11:22;;;;;;;2.03;1.20;;;16.30;99.90;;;;;;5031749;28;20426;-72
2022/09/03 00:14:08;;;;;;;1.40;1.10;;;16.30;99.90;;;;;;5032202;28;20794;-72
2022/09/03 00:16:44;;;;;;;1.50;1.13;;;16.20;99.90;;;;;;5031688;28;20783;-72
2022/09/03 00:19:12;;;;;;;1.60;1.17;;;16.20;99.90;;;;;;5031902;28;20464;-71
2022/09/03 00:21:43;;;;;;;1.40;1.27;;;16.20;99.90;;;;;;5031878;28;20406;-73
2022/09/03 00:24:13;;;;;;;3.33;1.17;;;16.20;99.90;;;;;;5032010;28;20429;-73
2022/09/03 00:26:44;;;;;;;1.57;1.17;;;16.10;99.90;;;;;;5031586;28;20472;-72
2022/09/03 00:29:35;;;;;;;1.83;1.13;;;16.10;99.90;;;;;;5031950;28;20402;-72
2022/09/03 00:32:13;;;;;;;1.80;1.37;;;16.10;99.90;;;;;;5032076;28;20403;-72
2022/09/03 00:34:43;;;;;;;1.87;1.30;;;16.10;99.90;;;;;;5029963;28;20434;-72
2022/09/03 00:37:09;;;;;;;1.83;1.30;;;16.10;99.90;;;;;;5031676;28;20403;-72
2022/09/03 00:39:36;;;;;;;1.70;1.20;;;16.00;99.90;;;;;;5031858;28;20426;-72
2022/09/03 00:42:25;;;;;;;1.20;0.97;;;16.00;99.90;;;;;;5031950;28;20398;-72
2022/09/03 00:45:19;;;;;;;1.23;1.00;;;16.00;99.90;;;;;;5030454;28;20430;-71
2022/09/03 00:48:03;;;;;;;1.63;1.23;;;15.90;99.90;;;;;;5031784;28;20497;-72
2022/09/03 00:50:37;;;;;;;5.17;1.33;;;15.90;99.90;;;;;;5031753;28;20822;-72
2022/09/03 00:53:16;;;;;;;1.70;1.27;;;15.90;99.90;;;;;;5031715;28;20894;-72
2022/09/03 00:55:48;;;;;;;1.10;1.00;;;15.80;99.90;;;;;;5031123;28;20899;-72
2022/09/03 00:58:24;;;;;;;1.93;1.30;;;15.80;99.90;;;;;;5030261;28;20453;-72
2022/09/03 01:00:51;;;;;;;1.20;1.00;;;15.80;99.90;;;;;;5031528;28;20485;-72
2022/09/03 01:03:38;;;;;;;1.47;1.03;;;15.70;99.90;;;;;;5031602;28;20421;-72
2022/09/03 01:06:19;;;;;;;1.30;1.17;;;15.70;99.90;;;;;;5030949;28;20418;-72
2022/09/03 01:09:10;;;;;;;1.43;1.20;;;15.70;99.90;;;;;;5030465;28;20984;-73
2022/09/03 01:11:47;;;;;;;1.50;1.40;;;15.60;99.90;;;;;;5031437;28;20484;-72
2022/09/03 01:14:22;;;;;;;1.40;1.00;;;15.60;99.90;;;;;;5031344;28;20429;-73
2022/09/03 01:17:06;;;;;;;2.27;1.03;;;15.50;99.90;;;;;;5029962;28;20956;-72
2022/09/03 01:19:57;;;;;;;1.23;1.13;;;15.50;99.90;;;;;;5031485;28;20497;-73
2022/09/03 01:22:23;;;;;;;1.30;1.10;;;15.50;99.90;;;;;;5031380;28;20737;-73
2022/09/03 01:25:14;;;;;;;1.43;1.30;;;15.50;99.90;;;;;;5033930;28;20429;-72
2022/09/03 01:28:05;;;;;;;1.37;1.23;;;15.50;99.90;;;;;;5034999;28;20402;-72
2022/09/03 01:30:37;;;;;;;1.70;1.20;;;15.50;99.90;;;;;;5034997;28;20398;-74
2022/09/03 01:33:07;;;;;;;1.60;1.13;;;15.50;99.90;;;;;;5034652;28;20480;-73
2022/09/03 01:35:45;;;;;;;1.43;1.23;;;15.40;99.90;;;;;;5034220;28;20778;-73
2022/09/03 01:38:22;;;;;;;3.53;1.20;;;15.30;99.90;;;;;;5034584;28;20456;-73
2022/09/03 01:42:14;;;;;;;1.60;1.50;;;15.30;99.90;;;;;;5034690;28;20832;-73
2022/09/03 01:44:21;;;;;;;2.50;1.10;;;15.30;99.90;;;;;;5034059;28;20434;-73
2022/09/03 01:46:55;;;;;;;1.50;1.10;;;15.20;99.90;;;;;;5033248;28;20783;-73
2022/09/03 01:49:32;;;;;;;2.53;1.07;;;15.10;99.90;;;;;;5034510;28;20977;-72
2022/09/03 01:52:10;;;;;;;1.40;1.10;;;15.00;99.90;;;;;;5034343;28;20433;-72
2022/09/03 01:54:54;;;;;;;1.40;1.00;;;15.00;99.90;;;;;;5033911;28;20433;-74
2022/09/03 01:57:37;;;;;;;1.80;1.40;;;15.00;99.90;;;;;;5034299;28;20529;-73
2022/09/03 02:00:10;;;;;;;3.50;1.13;;;15.00;99.90;;;;;;5034323;28;20390;-72
2022/09/03 02:02:36;;;;;;;3.07;2.07;;;15.00;99.90;;;;;;5033950;28;20425;-72
2022/09/03 02:05:08;;;;;;;1.37;1.20;;;15.00;99.90;;;;;;5033705;28;20422;-72
2022/09/03 02:07:37;;;;;;;1.30;1.20;;;15.00;99.90;;;;;;5034430;28;20178;-73
2022/09/03 02:10:07;;;;;;;1.10;0.90;;;15.00;99.90;;;;;;5034226;28;20395;-73
2022/09/03 02:12:35;;;;;;;1.60;1.10;;;15.00;99.90;;;;;;5033799;28;20410;-73
2022/09/03 02:15:05;;;;;;;3.63;1.30;;;15.00;99.90;;;;;;5033517;28;20500;-72
2022/09/03 02:17:32;;;;;;;1.50;1.40;;;15.00;99.90;;;;;;5033482;28;20457;-73
2022/09/03 02:20:02;;;;;;;1.80;1.30;;;15.00;99.90;;;;;;5033849;28;20406;-72
2022/09/03 02:22:28;;;;;;;1.10;0.90;;;14.90;99.90;;;;;;5033549;28;20892;-73
2022/09/03 02:24:54;;;;;;;1.20;1.10;;;14.80;99.90;;;;;;5033332;28;20492;-73
2022/09/03 02:27:19;;;;;;;2.30;1.47;;;14.90;99.90;;;;;;5032539;28;20172;-73
2022/09/03 02:29:46;;;;;;;1.70;1.40;;;14.80;99.90;;;;;;5033706;28;20782;-72
2022/09/03 02:32:13;;;;;;;1.57;1.00;;;14.90;99.90;;;;;;5033576;28;20237;-72
2022/09/03 02:34:40;;;;;;;2.07;1.30;;;14.80;99.90;;;;;;5033067;28;20453;-73
2022/09/03 02:37:18;;;;;;;1.50;1.20;;;14.80;99.90;;;;;;5033526;28;20409;-73
2022/09/03 02:39:44;;;;;;;1.50;1.30;;;14.70;99.90;;;;;;5033674;28;20456;-73
2022/09/03 02:42:12;;;;;;;1.53;1.43;;;14.70;99.90;;;;;;5033458;28;20402;-73
2022/09/03 02:44:47;;;;;;;1.53;1.40;;;14.70;99.90;;;;;;5051350;28;20479;-72
2022/09/03 02:47:13;;;;;;;1.20;1.10;;;14.60;99.90;;;;;;5052052;28;20409;-73
2022/09/03 02:49:39;;;;;;;1.80;1.20;;;14.60;99.90;;;;;;5053162;28;20853;-73
2022/09/03 02:52:11;;;;;;;6.27;3.97;;;14.60;99.90;;;;;;5052040;28;20516;-73
2022/09/03 02:54:41;;;;;;;7.10;4.47;;;14.60;99.90;;;;;;5034390;28;20533;-73
2022/09/03 02:57:08;;;;;;;1.93;1.50;;;14.60;99.90;;;;;;5033051;28;20399;-73
2022/09/03 02:59:34;;;;;;;1.83;1.60;;;14.60;99.90;;;;;;5033036;28;20828;-73
2022/09/03 03:02:00;;;;;;;1.83;1.33;;;14.60;99.90;;;;;;5033104;28;20398;-72
2022/09/03 03:04:25;;;;;;;1.83;1.50;;;14.60;99.90;;;;;;5049049;28;20805;-73
2022/09/03 03:06:51;;;;;;;1.87;1.33;;;14.60;99.90;;;;;;5053058;28;20397;-74
2022/09/03 03:09:17;;;;;;;1.30;1.10;;;14.60;99.90;;;;;;5052918;28;20175;-73
2022/09/03 03:11:43;;;;;;;1.70;1.50;;;14.60;99.90;;;;;;5052754;28;20250;-73
2022/09/03 03:14:08;;;;;;;1.80;1.43;;;14.60;99.90;;;;;;5038557;28;20535;-75
2022/09/03 03:16:34;;;;;;;1.40;1.30;;;14.60;99.90;;;;;;5032742;28;20168;-73
2022/09/03 03:18:59;;;;;;;5.43;1.23;;;14.60;99.90;;;;;;5032779;28;20290;-73
2022/09/03 03:21:25;;;;;;;1.23;1.07;;;14.60;99.90;;;;;;5032582;28;20766;-73
2022/09/03 03:23:51;;;;;;;4.00;1.40;;;14.50;99.90;;;;;;5043517;28;20194;-73
2022/09/03 03:26:18;;;;;;;1.13;0.93;;;14.60;99.90;;;;;;5052216;28;20531;-73
2022/09/03 03:28:48;;;;;;;1.53;1.43;;;14.70;99.90;;;;;;5051354;28;20198;-73
2022/09/03 03:31:21;;;;;;;2.00;1.20;;;14.70;99.90;;;;;;5052514;28;20413;-71
2022/09/03 03:33:51;;;;;;;1.37;1.07;;;14.70;99.90;;;;;;5041824;28;20438;-73
2022/09/03 03:36:18;;;;;;;1.77;1.23;;;14.70;99.90;;;;;;5032136;28;20853;-73
2022/09/03 03:38:44;;;;;;;2.03;1.23;;;14.80;99.90;;;;;;5032347;28;20464;-72
2022/09/03 03:41:18;;;;;;;1.60;1.40;;;14.80;99.90;;;;;;5032629;28;20395;-74
2022/09/03 03:43:44;;;;;;;1.80;1.43;;;14.80;99.90;;;;;;5041632;28;20438;-73
2022/09/03 03:46:10;;;;;;;1.50;1.40;;;14.80;99.90;;;;;;5051315;28;20405;-73
2022/09/03 03:48:38;;;;;;;2.07;1.77;;;14.90;99.90;;;;;;5052051;28;20406;-73
2022/09/03 03:51:07;;;;;;;2.20;1.33;;;14.90;99.90;;;;;;5052004;28;20429;-73
2022/09/03 03:53:34;;;;;;;3.90;1.80;;;14.90;99.90;;;;;;5044011;28;20532;-73
2022/09/03 03:56:03;;;;;;;1.37;1.23;;;14.80;99.90;;;;;;5031936;28;20512;-73
2022/09/03 03:58:31;;;;;;;2.53;1.50;;;14.80;99.90;;;;;;5032214;28;20449;-73
2022/09/03 04:01:13;;;;;;;2.43;1.43;;;14.80;99.90;;;;;;5032142;28;20402;-73
2022/09/03 04:03:38;;;;;;;5.03;1.30;;;14.70;99.90;;;;;;5039203;28;20429;-73
2022/09/03 04:06:05;;;;;;;1.57;1.43;;;14.70;99.90;;;;;;5051625;28;20405;-73
2022/09/03 04:08:36;;;;;;;1.67;1.30;;;14.70;99.90;;;;;;5052154;28;20747;-73
2022/09/03 04:11:04;;;;;;;1.40;1.30;;;14.70;99.90;;;;;;5051767;28;20763;-73
2022/09/03 04:13:32;;;;;;;1.57;1.47;;;14.70;99.90;;;;;;5044606;28;20437;-73
2022/09/03 04:16:12;;;;;;;3.50;1.23;;;14.70;99.90;;;;;;5031689;28;20429;-73
2022/09/03 04:18:39;;;;;;;1.70;1.30;;;14.70;99.90;;;;;;5032026;28;20961;-73
2022/09/03 04:21:07;;;;;;;2.10;1.50;;;14.80;99.90;;;;;;5032078;28;20402;-74
2022/09/03 04:23:35;;;;;;;1.40;1.20;;;14.80;99.90;;;;;;5038687;28;20805;-73
2022/09/03 04:26:01;;;;;;;2.33;1.50;;;14.90;99.90;;;;;;5051393;28;20416;-73
2022/09/03 04:28:27;;;;;;;1.60;1.20;;;14.90;99.90;;;;;;5051781;28;20909;-73
2022/09/03 04:30:53;;;;;;;1.80;1.40;;;15.00;99.90;;;;;;5051797;28;20438;-73
2022/09/03 04:33:19;;;;;;;1.70;1.30;;;15.00;99.90;;;;;;5046836;28;20962;-73
2022/09/03 04:35:45;;;;;;;1.50;1.20;;;15.10;99.90;;;;;;5031780;28;20411;-73
2022/09/03 04:38:11;;;;;;;1.83;1.20;;;15.20;99.90;;;;;;5031776;28;20503;-73
2022/09/03 04:40:36;;;;;;;2.63;1.00;;;15.20;99.90;;;;;;5031597;28;20194;-73
2022/09/03 04:43:02;;;;;;;1.63;1.23;;;15.20;99.90;;;;;;5033493;28;20156;-73
2022/09/03 04:45:28;;;;;;;1.53;1.43;;;15.30;99.90;;;;;;5051279;28;20229;-73
2022/09/03 04:47:58;;;;;;;1.77;1.30;;;15.30;99.90;;;;;;5051628;28;20774;-73
2022/09/03 04:50:24;;;;;;;2.50;1.50;;;15.40;99.90;;;;;;5051501;28;20191;-73
2022/09/03 04:52:49;;;;;;;1.80;1.43;;;15.40;99.90;;;;;;5051101;28;20938;-73
2022/09/03 04:55:15;;;;;;;1.80;1.20;;;15.50;99.90;;;;;;5031491;28;20429;-74
2022/09/03 04:57:41;;;;;;;2.40;1.50;;;15.50;99.90;;;;;;5032145;28;20203;-73
2022/09/03 05:00:10;;;;;;;2.40;1.30;;;15.60;99.90;;;;;;5035473;28;20402;-73
2022/09/03 05:02:36;;;;;;;1.37;1.17;;;15.70;99.90;;;;;;5055476;28;20412;-73
2022/09/03 05:05:01;;;;;;;3.20;1.27;;;15.70;99.90;;;;;;5055168;28;20420;-73
2022/09/03 05:07:37;;;;;;;2.80;1.20;;;15.70;99.90;;;;;;5054996;28;20185;-73
2022/09/03 05:10:05;;;;;;;1.67;0.97;;;15.80;99.90;;;;;;5055337;28;20159;-73
2022/09/03 05:12:32;;;;;;;5.00;1.60;;;15.80;99.90;;;;;;5035255;28;20421;-73
2022/09/03 05:14:58;;;;;;;1.40;1.23;;;15.80;99.90;;;;;;5034846;28;20957;-73
2022/09/03 05:17:24;;;;;;;1.87;1.10;;;15.90;99.90;;;;;;5035088;28;20442;-73
2022/09/03 05:19:50;;;;;;;1.30;1.20;;;15.90;99.90;;;;;;5035073;28;20405;-73
2022/09/03 05:22:20;;;;;;;1.63;1.10;;;15.90;99.90;;;;;;5052201;28;20175;-73
2022/09/03 05:24:46;;;;;;;1.50;1.30;;;16.00;99.90;;;;;;5054573;28;20664;-73
2022/09/03 05:27:11;;;;;;;1.40;1.00;;;16.10;99.90;;;;;;5054681;28;20405;-74
2022/09/03 05:29:37;;;;;;;2.57;1.10;;;16.20;99.90;;;;;;5055060;28;20389;-74
2022/09/03 05:32:03;;;;;;;2.90;1.20;;;16.30;99.90;;;;;;5038978;28;20187;-72
2022/09/03 05:34:28;;;;;;;2.23;0.73;;;16.40;99.90;;;;;;5034514;28;20326;-71
2022/09/03 05:36:57;;;;;;;1.40;1.20;;;16.50;99.90;;;;;;5034705;28;20398;-74
2022/09/03 05:39:22;;;;;;;1.30;1.10;;;16.60;99.90;;;;;;5034764;28;20269;-72
2022/09/03 05:41:51;;;;;;;1.80;1.00;;;16.60;99.90;;;;;;5047435;28;20417;-72
2022/09/03 05:44:17;;;;;;;1.67;1.27;;;16.70;99.90;;;;;;5054252;28;20241;-74
2022/09/03 05:46:43;;;;;;;2.10;1.37;;;16.70;99.90;;;;;;5054523;28;20910;-73
2022/09/03 05:49:10;;;;;;;3.00;1.23;;;16.80;99.90;;;;;;5054584;28;20820;-73
2022/09/03 05:51:38;;;;;;;2.07;1.30;;;16.90;99.90;;;;;;5043052;28;20212;-73
2022/09/03 05:54:04;;;;;;;2.80;1.20;;;17.00;99.90;;;;;;5034410;28;20454;-73
2022/09/03 05:56:32;;;;;;;1.40;1.30;;;17.10;99.90;;;;;;5034133;28;20523;-72
2022/09/03 05:59:00;;;;;;;1.93;1.23;;;17.20;99.90;;;;;;5034385;28;20200;-73
2022/09/03 06:01:31;;;;;;;2.57;1.30;;;17.40;99.90;;;;;;5043607;28;20498;-73
2022/09/03 06:04:02;;;;;;;2.30;1.47;;;17.60;99.90;;;;;;5054218;28;20970;-72
2022/09/03 06:06:30;;;;;;;2.00;1.20;;;17.70;99.90;;;;;;5053808;28;20402;-73
2022/09/03 06:08:58;;;;;;;1.83;1.20;;;17.70;99.90;;;;;;5053560;28;20421;-73
2022/09/03 06:11:28;;;;;;;2.57;1.67;;;17.60;99.90;;;;;;5044840;28;20414;-73
2022/09/03 06:14:03;;;;;;;1.43;0.97;;;17.70;99.90;;;;;;5034145;28;20430;-72
2022/09/03 06:16:30;;;;;;;1.37;1.10;;;17.70;99.90;;;;;;5033939;28;20406;-72
2022/09/03 06:18:55;;;;;;;1.83;1.00;;;17.50;99.90;;;;;;5033944;28;20457;-73
2022/09/03 06:21:21;;;;;;;3.77;1.23;;;17.60;99.90;;;;;;5042057;28;20756;-72
2022/09/03 06:23:51;;;;;;;1.33;0.90;;;17.70;99.90;;;;;;5053585;28;20563;-72
2022/09/03 06:26:18;;;;;;;2.33;1.27;;;17.80;99.90;;;;;;5053437;28;20735;-72
2022/09/03 06:28:44;;;;;;;1.20;1.00;;;17.90;99.90;;;;;;5053808;28;20416;-72
2022/09/03 06:31:12;;;;;;;1.50;1.03;;;18.10;99.90;;;;;;5046939;28;20419;-72
2022/09/03 06:33:40;;;;;;;1.60;0.87;;;18.20;99.90;;;;;;5033714;28;20183;-72
2022/09/03 06:36:09;;;;;;;2.27;1.33;;;18.20;99.90;;;;;;5032118;28;20414;-72
2022/09/03 06:38:36;;;;;;;2.70;1.40;;;18.40;99.90;;;;;;5033557;28;20512;-72
2022/09/03 06:41:26;;;;;;;1.40;1.20;;;18.50;99.90;;;;;;5037239;28;20413;-72
2022/09/03 06:44:01;;;;;;;1.90;1.20;;;18.70;99.90;;;;;;5033568;28;20427;-72
2022/09/03 06:46:26;;;;;;;1.97;0.93;;;18.80;99.90;;;;;;5032750;28;20862;-72
2022/09/03 06:48:52;;;;;;;1.37;1.00;;;18.90;99.90;;;;;;5033285;28;20424;-72
2022/09/03 06:51:22;;;;;;;1.50;1.10;;;18.80;99.90;;;;;;5033610;28;20278;-72
2022/09/03 06:53:50;;;;;;;2.40;1.33;;;18.80;99.90;;;;;;5033460;28;20560;-74
2022/09/03 06:56:25;;;;;;;1.30;1.07;;;18.80;99.90;;;;;;5033056;28;20405;-72
2022/09/03 06:58:56;;;;;;;1.63;1.10;;;18.70;99.90;;;;;;5033498;28;20445;-72
2022/09/03 07:01:30;;;;;;;1.50;1.30;;;18.70;99.90;;;;;;5040790;28;20449;-73
2022/09/03 07:03:57;;;;;;;1.60;1.03;;;18.80;99.90;;;;;;5053071;28;20417;-72
2022/09/03 07:06:28;;;;;;;1.77;1.00;;;18.80;99.90;;;;;;5052846;28;20441;-72
2022/09/03 07:08:56;;;;;;;1.53;1.10;;;18.90;99.90;;;;;;5051875;28;20425;-73
2022/09/03 07:11:25;;;;;;;1.70;1.20;;;18.90;99.90;;;;;;5045397;28;20422;-71
2022/09/03 07:13:52;;;;;;;1.20;1.00;;;18.90;99.90;;;;;;5033233;28;20432;-72
2022/09/03 07:16:20;;;;;;;1.43;1.23;;;18.90;99.90;;;;;;5031461;28;20779;-71
2022/09/03 07:18:47;;;;;;;1.20;0.93;;;19.00;99.90;;;;;;5033035;28;20485;-72
2022/09/03 07:21:15;;;;;;;1.10;0.87;;;19.00;99.90;;;;;;5037708;28;21009;-72
2022/09/03 07:23:41;;;;;;;1.50;1.10;;;19.00;99.90;;;;;;5052650;28;20903;-73
2022/09/03 07:26:10;;;;;;;1.30;1.20;;;19.10;99.90;;;;;;5052508;28;20400;-72
2022/09/03 07:28:37;;;;;;;2.50;1.07;;;19.10;99.90;;;;;;5052660;28;20406;-72
2022/09/03 07:31:04;;;;;;;2.90;1.20;;;19.20;99.90;;;;;;5048174;28;20464;-72
2022/09/03 07:33:30;;;;;;;1.80;1.30;;;19.30;99.90;;;;;;5032587;28;20779;-72
2022/09/03 07:36:02;;;;;;;2.47;1.20;;;19.40;99.90;;;;;;5032512;28;20907;-73
2022/09/03 07:38:27;;;;;;;2.10;1.03;;;19.40;99.90;;;;;;5032822;28;20450;-73
2022/09/03 07:41:00;;;;;;;1.47;1.23;;;19.50;99.90;;;;;;5035033;28;20437;-73
2022/09/03 07:43:27;;;;;;;1.30;1.00;;;19.60;99.90;;;;;;5052360;28;20237;-73
2022/09/03 07:45:55;;;;;;;1.10;0.90;;;19.70;99.90;;;;;;5052206;28;21045;-73
2022/09/03 07:48:22;;;;;;;1.47;0.90;;;19.90;99.90;;;;;;5032594;28;20414;-72
2022/09/03 07:50:47;;;;;;;3.53;1.43;;;20.00;99.90;;;;;;5031907;28;20441;-73
2022/09/03 07:53:16;;;;;;;1.30;1.00;;;20.10;99.90;;;;;;5031955;28;20406;-72
2022/09/03 07:55:43;;;;;;;6.87;1.20;;;20.30;98.20;;;;;;5031842;28;20177;-72
2022/09/03 07:58:10;;;;;;;1.83;1.40;;;20.50;98.40;;;;;;5032079;28;20588;-73
2022/09/03 08:00:36;;;;;;;2.73;1.10;;;20.60;96.20;;;;;;5034398;28;20590;-72
2022/09/03 08:03:05;;;;;;;1.70;1.17;;;20.70;95.40;;;;;;5052018;28;20492;-73
2022/09/03 08:05:31;;;;;;;1.37;0.93;;;20.80;94.80;;;;;;5050586;28;20194;-72
2022/09/03 08:08:00;;;;;;;1.10;0.90;;;21.00;92.50;;;;;;5052040;28;20917;-71
2022/09/03 08:10:27;;;;;;;2.23;1.40;;;21.10;90.40;;;;;;5051408;28;20409;-73
2022/09/03 08:12:53;;;;;;;1.17;0.97;;;21.60;88.00;;;;;;5032124;28;20422;-71
2022/09/03 08:15:18;;;;;;;1.30;1.13;;;22.30;84.10;;;;;;5032099;28;20996;-71
2022/09/03 08:17:44;;;;;;;1.50;1.23;;;23.10;77.80;;;;;;5032144;28;20255;-73
2022/09/03 08:20:10;;;;;;;1.63;1.20;;;23.80;73.70;;;;;;5033142;28;20578;-73
2022/09/03 08:22:36;;;;;;;1.20;1.10;;;24.00;70.10;;;;;;5043666;28;20171;-73
2022/09/03 08:25:02;;;;;;;3.40;1.60;;;23.90;66.70;;;;;;5031767;28;20207;-73
2022/09/03 08:27:27;;;;;;;1.53;1.30;;;24.00;66.10;;;;;;5032217;28;20394;-73
2022/09/03 08:29:53;;;;;;;2.60;1.30;;;24.70;66.50;;;;;;5032128;28;20770;-72
2022/09/03 08:32:19;;;;;;;1.57;1.33;;;25.40;63.60;;;;;;5051480;28;20181;-72
2022/09/03 08:34:45;;;;;;;1.43;1.33;;;25.40;58.70;;;;;;5055806;28;20447;-73
2022/09/03 08:37:11;;;;;;;1.97;1.87;;;24.70;58.70;;;;;;5056006;28;20161;-73
2022/09/03 08:39:37;;;;;;;1.87;1.67;;;24.40;59.80;;;;;;5055854;28;20479;-73
2022/09/03 08:42:08;;;;;;;2.80;1.30;;;24.00;60.10;;;;;;5039606;28;20914;-72
2022/09/03 08:44:53;;;;;;;1.50;1.17;;;23.60;61.20;;;;;;5035579;28;20464;-73
2022/09/03 08:47:33;;;;;;;1.63;1.27;;;23.40;62.60;;;;;;5034725;28;21176;-74
2022/09/03 08:50:20;;;;;;;3.10;2.00;;;23.70;63.20;;;;;;5035654;28;20438;-73
2022/09/03 08:53:16;;;;;;;1.23;1.13;;;23.80;63.40;;;;;;5015845;28;20450;-73
2022/09/03 08:55:55;;;;;;;1.47;1.10;;;23.90;64.50;;;;;;5015594;28;20765;-72
2022/09/03 08:58:26;;;;;;;1.53;1.30;;;23.80;63.40;;;;;;5015041;28;20501;-73
2022/09/03 09:01:06;;;;;;;1.50;1.07;;;23.80;65.20;;;;;;5027102;28;20420;-73
2022/09/03 09:03:58;;;;;;;2.30;1.67;;;24.30;64.40;;;;;;5055395;28;20424;-73
2022/09/03 09:06:49;;;;;;;1.70;1.23;;;25.50;61.30;;;;;;5055241;28;20401;-73
2022/09/03 09:09:35;;;;;;;1.40;1.30;;;27.30;58.40;;;;;;5054305;28;20397;-72
2022/09/03 09:12:13;;;;;;;1.87;1.33;;;29.20;52.40;;;;;;5049942;28;20424;-74
2022/09/03 09:14:49;;;;;;;1.40;1.30;;;29.90;49.90;;;;;;5053557;28;20433;-72
2022/09/03 09:17:31;;;;;;;2.00;1.53;;;30.80;47.40;;;;;;5055123;28;20395;-71
2022/09/03 09:20:15;;;;;;;1.57;1.47;;;31.80;45.60;;;;;;5053872;28;20405;-72
2022/09/03 09:22:45;;;;;;;1.97;1.77;;;31.90;42.90;;;;;;5035574;28;20417;-70
2022/09/03 09:25:16;;;;;;;1.97;1.53;;;32.00;42.70;;;;;;5034762;28;20430;-71
2022/09/03 09:28:01;;;;;;;2.33;1.30;;;30.60;43.10;;;;;;5034987;28;20414;-71
2022/09/03 09:30:30;;;;;;;4.03;1.97;;;29.70;45.10;;;;;;5035983;28;20395;-71
2022/09/03 09:32:55;;;;;;;1.60;1.40;;;30.10;45.90;;;;;;5054499;28;20410;-71
2022/09/03 09:35:22;;;;;;;3.10;1.50;;;31.10;44.80;;;;;;5054471;28;20756;-73
2022/09/03 09:37:56;;;;;;;3.47;1.50;;;32.10;45.20;;;;;;5041347;28;20191;-72
2022/09/03 09:40:24;;;;;;;2.17;1.97;;;33.80;41.80;;;;;;5031563;28;20798;-72
2022/09/03 09:42:57;;;;;;;2.47;1.80;;;34.40;40.30;;;;;;5015247;28;20438;-72
2022/09/03 09:45:23;;;;;;;6.23;1.60;;;35.30;39.20;;;;;;5013869;28;20933;-71
2022/09/03 09:47:54;;;;;;;1.57;1.33;;;36.20;37.10;;;;;;5031480;28;20415;-74
2022/09/03 09:50:21;;;;;;;2.17;1.80;;;36.80;36.90;;;;;;5034233;28;20313;-71
2022/09/03 09:52:46;;;;;;;1.87;1.73;;;37.70;35.20;;;;;;5036580;28;20464;-71
2022/09/03 09:55:18;;;;;;;2.43;1.20;;;38.00;34.20;;;;;;5033960;28;20505;-72
2022/09/03 09:57:44;;;;;;;1.80;1.60;;;37.90;33.80;;;;;;5033971;28;20218;-72
2022/09/03 10:00:14;;;;;;;3.90;1.90;;;37.40;33.10;;;;;;5034036;28;20751;-71
2022/09/03 10:02:48;;;;;;;1.40;1.30;;;36.70;33.80;;;;;;5034175;28;20414;-71
2022/09/03 10:05:32;;;;;;;1.30;1.20;;;36.30;34.40;;;;;;5032920;28;20449;-71
2022/09/03 10:08:04;;;;;;;2.03;1.77;;;36.00;34.50;;;;;;5033338;28;20449;-72
2022/09/03 10:10:36;;;;;;;1.70;1.43;;;35.20;35.40;;;;;;5034350;28;20414;-71
2022/09/03 10:13:18;;;;;;;1.50;1.40;;;34.30;35.40;;;;;;5034267;28;20418;-71
2022/09/03 10:15:55;;;;;;;2.53;1.30;;;33.70;37.40;;;;;;5033883;28;20406;-71
2022/09/03 10:18:44;;;;;;;1.40;1.30;;;33.80;38.70;;;;;;5034178;28;20448;-71
2022/09/03 10:21:25;;;;;;;1.53;1.40;;;34.60;37.50;;;;;;5039256;28;20441;-71
2022/09/03 10:24:32;;;;;;;2.13;1.70;;;35.20;38.40;;;;;;5053851;28;20515;-71
2022/09/03 10:26:58;;;;;;;2.70;1.47;;;35.60;36.10;;;;;;5053643;28;20397;-71
2022/09/03 10:29:28;;;;;;;2.13;1.90;;;35.20;36.60;;;;;;5053681;28;20401;-71
2022/09/03 10:32:30;;;;;;;1.70;1.60;;;34.90;37.60;;;;;;5041922;28;20178;-71
2022/09/03 10:35:17;;;;;;;1.70;1.50;;;35.10;37.40;;;;;;5033255;28;20425;-70
2022/09/03 10:37:53;;;;;;;1.60;1.50;;;34.70;37.20;;;;;;5033937;28;20947;-71
2022/09/03 10:40:41;;;;;;;3.53;1.70;;;34.20;37.90;;;;;;5032514;28;20754;-71
2022/09/03 10:43:15;;;;;;;2.07;1.87;;;33.90;38.50;;;;;;5033025;28;20406;-70
2022/09/03 10:46:02;;;;;;;4.83;1.40;;;33.70;39.00;;;;;;5031493;28;20405;-71
2022/09/03 10:48:49;;;;;;;3.30;2.00;;;33.10;39.20;;;;;;5032709;28;20414;-71
2022/09/03 10:51:33;;;;;;;2.13;2.00;;;34.30;39.20;;;;;;5032448;28;20524;-71
2022/09/03 10:54:08;;;;;;;4.07;1.80;;;36.60;38.50;;;;;;5032378;28;20454;-72
2022/09/03 10:56:53;;;;;;;1.80;1.70;;;38.40;36.00;;;;;;5032308;28;20759;-70
2022/09/03 10:59:34;;;;;;;2.50;1.47;;;39.10;32.90;;;;;;5032446;28;20938;-71
2022/09/03 11:02:27;;;;;;;2.10;1.90;;;39.20;33.00;;;;;;5032551;28;20387;-71
2022/09/03 11:05:03;;;;;;;1.77;1.63;;;40.00;33.50;;;;;;5032305;28;20544;-72
2022/09/03 11:08:02;;;;;;;2.17;1.63;;;41.20;33.20;;;;;;5032366;28;20410;-71
2022/09/03 11:10:39;;;;;;;1.80;1.70;;;42.10;30.50;;;;;;5013880;28;20764;-72
2022/09/03 11:13:12;;;;;;;1.90;1.80;;;41.20;30.20;;;;;;5032950;28;20456;-71
2022/09/03 11:15:53;;;;;;;2.20;2.00;;;40.30;31.40;;;;;;5032143;28;20912;-72
2022/09/03 11:18:23;;;;;;;1.80;1.70;;;40.30;32.70;;;;;;5032563;28;21022;-72
2022/09/03 11:20:53;;;;;;;2.33;2.13;;;40.30;31.90;;;;;;5033241;28;20846;-72
2022/09/03 11:23:23;;;;;;;1.80;1.70;;;40.50;32.40;;;;;;5032248;28;20776;-72
2022/09/03 11:25:54;;;;;;;2.13;1.93;;;40.50;31.50;;;;;;5031751;28;20814;-72
2022/09/03 11:28:30;;;;;;;2.03;1.93;;;41.10;31.90;;;;;;5032340;28;20406;-72
2022/09/03 11:31:34;;;;;;;2.23;2.03;;;42.20;31.00;;;;;;5032465;28;20458;-73
2022/09/03 11:34:24;;;;;;;1.87;1.70;;;42.60;30.00;;;;;;5031612;28;20841;-72
2022/09/03 11:36:50;;;;;;;3.97;2.23;;;43.00;30.00;;;;;;5031294;28;20414;-72
2022/09/03 11:39:33;;;;;;;2.27;2.10;;;43.50;29.60;;;;;;5032131;28;20511;-72
2022/09/03 11:42:05;;;;;;;2.40;2.20;;;43.80;29.30;;;;;;5031879;28;20178;-72
2022/09/03 11:45:12;;;;;;;2.20;2.00;;;44.30;29.50;;;;;;5012131;28;20398;-71
2022/09/03 11:47:43;;;;;;;2.40;2.20;;;43.90;29.30;;;;;;5011717;28;20742;-71
2022/09/03 11:50:30;;;;;;;2.37;2.17;;;44.20;29.10;;;;;;5012916;28;20521;-71
2022/09/03 11:53:23;;;;;;;2.40;2.30;;;42.40;28.10;;;;;;5030868;28;20430;-71
2022/09/03 11:56:00;;;;;;;3.33;2.37;;;41.60;29.20;;;;;;5032683;28;20430;-71
2022/09/03 11:58:31;;;;;;;2.40;2.20;;;42.20;29.80;;;;;;5031793;28;20459;-71
2022/09/03 12:01:00;;;;;;;2.27;2.07;;;42.60;29.90;;;;;;5031945;28;20956;-71
2022/09/03 12:03:29;;;;;;;2.53;2.33;;;43.40;29.80;;;;;;5030784;28;20422;-71
2022/09/03 12:06:08;;;;;;;2.43;2.23;;;43.50;29.00;;;;;;5031321;28;20915;-71
2022/09/03 12:08:42;;;;;;;2.53;2.30;;;42.60;29.60;;;;;;5031423;28;20738;-71
2022/09/03 12:11:34;;;;;;;2.43;2.23;;;42.50;29.50;;;;;;5031743;28;20909;-71
2022/09/03 12:14:04;;;;;;;2.90;2.70;;;42.40;29.40;;;;;;5031980;28;20408;-71
2022/09/03 12:16:40;;;;;;;2.30;2.10;;;41.60;29.50;;;;;;5031413;28;20789;-71
2022/09/03 12:19:23;;;;;;;2.27;2.17;;;39.70;29.90;;;;;;5031826;28;20458;-71
2022/09/03 12:21:49;;;;;;;2.30;1.80;;;38.90;31.90;;;;;;5031626;28;20918;-71
2022/09/03 12:24:16;;;;;;;2.00;1.90;;;39.40;33.00;;;;;;5029906;28;20481;-72
2022/09/03 12:26:42;;;;;;;5.40;2.00;;;40.20;32.20;;;;;;5031757;28;20167;-72
2022/09/03 12:29:25;;;;;;;2.23;2.03;;;41.10;31.60;;;;;;5031402;28;20426;-71
2022/09/03 12:31:51;;;;;;;2.37;2.17;;;41.20;30.40;;;;;;5031506;28;20409;-71
2022/09/03 12:34:19;;;;;;;2.40;2.20;;;41.10;31.10;;;;;;5031159;28;20405;-71
2022/09/03 12:36:50;;;;;;;2.23;2.03;;;41.20;30.00;;;;;;5031663;28;20870;-71
2022/09/03 12:39:22;;;;;;;3.30;3.00;;;41.50;30.50;;;;;;5031433;28;20892;-71
2022/09/03 12:42:05;;;;;;;3.53;2.40;;;42.30;30.60;;;;;;5031160;28;20725;-72
2022/09/03 12:44:34;;;;;;;2.60;2.40;;;43.50;29.80;;;;;;5029678;28;20430;-71
2022/09/03 12:47:06;;;;;;;4.13;2.30;;;44.20;29.60;;;;;;5031722;28;20381;-72
2022/09/03 12:49:41;;;;;;;5.17;4.67;;;44.90;28.90;;;;;;5031991;28;20770;-72
2022/09/03 12:52:32;;;;;;;4.50;2.53;;;45.50;28.40;;;;;;5029984;28;20488;-72
2022/09/03 12:55:05;;;;;;;3.50;2.40;;;45.90;28.10;;;;;;5031066;28;20504;-72
2022/09/03 12:57:39;;;;;;;2.63;2.43;;;46.10;28.00;;;;;;5031931;28;20420;-71
2022/09/03 13:00:08;;;;;;;2.40;2.20;;;46.10;27.70;;;;;;5032067;28;20921;-71
2022/09/03 13:02:46;;;;;;;2.00;1.90;;;45.20;27.60;;;;;;5031454;28;20554;-72
2022/09/03 13:05:17;;;;;;;2.57;2.37;;;44.60;28.30;;;;;;5030790;28;20401;-71
2022/09/03 13:07:48;;;;;;;2.80;2.60;;;44.50;28.80;;;;;;5031732;28;20790;-72
2022/09/03 13:10:40;;;;;;;2.33;2.13;;;45.10;28.70;;;;;;5031997;28;20389;-72
2022/09/03 13:13:30;;;;;;;2.53;2.20;;;45.60;27.90;;;;;;5031039;28;20739;-72
2022/09/03 13:16:08;;;;;;;2.67;2.40;;;45.20;27.80;;;;;;5031395;28;20417;-72